Terminal Aerodrome Forecast
Issued by NWS

Home | Current Version | Previous Version | Text Only | Print | Product List | Glossary On
Versions: 1 2 3 4 5 6 7 8 9 10 11 12 13 14 15 16
000
FTAK31 PAJN 151148
TAFAPG
TAF
PAPG 151148Z 1512/1612 16006KT P6SM -SHRA SCT016 BKN027 OVC035
      TEMPO 1512/1516 18010G20KT BKN016 OVC025
     FM151600 22005KT P6SM VCSH SCT015 OVC035
     FM160000 20003KT 6SM -SHRA BR OVC025
     FM160500 VRB03KT 4SM BR VCSH OVC020
      AMD LTD TO CLD VIS AND WIND 1512/1515=

USA.gov is the U.S. government's official web portal to all federal, state and local government web resources and services.